createdAt,value
2019-05-07T01:28:10.411Z,2.07
2019-05-07T01:30:38.521Z,1.80
2019-05-07T01:33:13.658Z,1.97
2019-05-07T01:35:59.439Z,1.90
2019-05-07T01:38:27.355Z,1.80
2019-05-07T01:40:55.259Z,1.77
2019-05-07T01:43:23.432Z,1.97
2019-05-07T01:45:53.020Z,1.83
2019-05-07T01:48:23.034Z,1.90
2019-05-07T01:50:52.517Z,1.50
2019-05-07T01:53:22.583Z,1.80
2019-05-07T01:55:52.243Z,1.90
2019-05-07T01:58:21.985Z,1.80
2019-05-07T02:00:49.359Z,2.10
2019-05-07T02:03:23.490Z,1.83
2019-05-07T02:06:08.953Z,1.80
2019-05-07T02:08:55.860Z,2.10
2019-05-07T02:11:28.971Z,1.90
2019-05-07T02:13:56.968Z,1.87
2019-05-07T02:16:24.937Z,1.80
2019-05-07T02:18:52.922Z,2.20
2019-05-07T02:21:22.098Z,1.70
2019-05-07T02:23:52.160Z,1.60
2019-05-07T02:26:20.031Z,1.53
2019-05-07T02:28:48.053Z,1.80
2019-05-07T02:31:15.937Z,1.77
2019-05-07T02:33:43.969Z,1.90
2019-05-07T02:36:14.263Z,1.80
2019-05-07T02:38:49.455Z,1.67
2019-05-07T02:41:23.435Z,1.90
2019-05-07T02:43:53.503Z,1.77
2019-05-07T02:46:52.779Z,1.70
2019-05-07T02:49:34.584Z,1.80
2019-05-07T02:52:13.506Z,1.77
2019-05-07T02:54:59.165Z,1.70
2019-05-07T02:57:28.099Z,1.60
2019-05-07T02:59:56.079Z,1.73
2019-05-07T03:02:24.325Z,1.63
2019-05-07T03:04:53.303Z,2.00
2019-05-07T03:07:24.025Z,1.90
2019-05-07T03:09:53.557Z,1.80
2019-05-07T03:12:23.556Z,1.70
2019-05-07T03:14:53.348Z,1.97
2019-05-07T03:17:20.031Z,1.90
2019-05-07T03:19:49.810Z,2.10
2019-05-07T03:22:17.778Z,1.80
2019-05-07T03:24:52.921Z,1.97
2019-05-07T03:27:23.144Z,2.20
2019-05-07T03:30:04.924Z,1.70
2019-05-07T03:32:40.463Z,1.73
2019-05-07T03:35:36.429Z,1.80
2019-05-07T03:38:03.517Z,1.90
2019-05-07T03:40:32.839Z,1.70
2019-05-07T03:43:05.536Z,1.80
2019-05-07T03:45:54.444Z,1.80
2019-05-07T03:48:24.232Z,1.80
2019-05-07T03:50:53.129Z,1.90
2019-05-07T03:53:23.161Z,1.50
2019-05-07T03:55:53.673Z,1.77
2019-05-07T03:58:23.607Z,1.60
2019-05-07T04:00:53.563Z,1.70
2019-05-07T04:03:24.401Z,1.60
2019-05-07T04:05:52.855Z,1.50
2019-05-07T04:08:23.763Z,1.63
2019-05-07T04:10:53.771Z,1.47
2019-05-07T04:13:23.978Z,1.43
2019-05-07T04:15:52.576Z,1.53
2019-05-07T04:18:23.768Z,1.53
2019-05-07T04:20:53.718Z,1.23
2019-05-07T04:23:22.944Z,1.47
2019-05-07T04:26:18.132Z,1.40
2019-05-07T04:28:59.981Z,1.47
2019-05-07T04:31:30.103Z,1.40
2019-05-07T04:33:59.991Z,1.30
2019-05-07T04:36:34.279Z,1.27
2019-05-07T04:39:03.183Z,1.30
2019-05-07T04:41:33.006Z,1.50
2019-05-07T04:44:03.578Z,1.30
2019-05-07T04:46:33.424Z,1.13
2019-05-07T04:49:03.281Z,1.27
2019-05-07T04:51:36.629Z,1.23
2019-05-07T04:54:04.648Z,1.40
2019-05-07T04:56:33.700Z,1.30
2019-05-07T04:59:03.592Z,1.27
2019-05-07T05:01:34.158Z,1.17
2019-05-07T05:04:21.098Z,1.10
2019-05-07T05:06:32.978Z,1.10
2019-05-07T05:09:03.040Z,1.00
2019-05-07T05:11:33.352Z,1.20
2019-05-07T05:14:02.771Z,1.10
2019-05-07T05:16:30.175Z,0.90
2019-05-07T05:18:58.178Z,1.00
2019-05-07T05:21:42.013Z,1.00
2019-05-07T05:24:13.964Z,1.03
2019-05-07T05:26:42.052Z,1.33
2019-05-07T05:29:11.960Z,0.90
2019-05-07T05:31:39.623Z,1.20
2019-05-07T05:34:07.746Z,1.10
2019-05-07T05:36:35.691Z,1.03
2019-05-07T05:39:05.655Z,1.00
2019-05-07T05:41:37.505Z,0.90
2019-05-07T05:44:11.791Z,0.90
2019-05-07T05:46:39.517Z,1.00
2019-05-07T05:49:07.417Z,1.20
2019-05-07T05:51:42.974Z,1.07
2019-05-07T05:54:35.979Z,1.10
2019-05-07T05:57:32.369Z,1.00
2019-05-07T06:00:18.274Z,0.80
2019-05-07T06:03:22.582Z,1.10
2019-05-07T06:06:07.422Z,1.10
2019-05-07T06:08:43.289Z,1.00
2019-05-07T06:11:44.515Z,0.90
2019-05-07T06:14:27.637Z,1.00
2019-05-07T06:17:23.460Z,1.03
2019-05-07T06:20:08.865Z,0.97
2019-05-07T06:22:48.293Z,0.90
2019-05-07T06:25:24.803Z,1.10
2019-05-07T06:27:52.644Z,1.03
2019-05-07T06:30:22.743Z,1.20
2019-05-07T06:32:52.288Z,1.10
2019-05-07T06:35:22.767Z,1.00
2019-05-07T06:37:52.016Z,0.80
2019-05-07T06:40:37.570Z,1.10
2019-05-07T06:43:24.574Z,0.90
2019-05-07T06:45:56.854Z,0.90
2019-05-07T06:48:37.739Z,0.90
2019-05-07T06:50:57.268Z,0.83
2019-05-07T06:53:29.003Z,0.83
2019-05-07T06:55:57.581Z,0.80
2019-05-07T06:58:28.123Z,0.83
2019-05-07T07:01:12.198Z,0.90
2019-05-07T07:03:59.109Z,0.90
2019-05-07T07:06:29.645Z,0.70
2019-05-07T07:09:19.353Z,1.00
2019-05-07T07:11:56.846Z,0.80
2019-05-07T07:14:24.885Z,0.90
2019-05-07T07:16:52.889Z,0.97
2019-05-07T07:19:23.105Z,0.77
2019-05-07T07:21:52.546Z,1.03
2019-05-07T07:24:22.216Z,1.00
2019-05-07T07:26:49.863Z,0.80
2019-05-07T07:29:19.440Z,0.70
2019-05-07T07:31:52.746Z,0.90
2019-05-07T07:34:22.799Z,0.73
2019-05-07T07:37:06.177Z,0.90
2019-05-07T07:39:29.407Z,1.03
2019-05-07T07:41:59.816Z,0.80
2019-05-07T07:44:27.818Z,0.77
2019-05-07T07:46:55.723Z,1.10
2019-05-07T07:49:23.634Z,0.80
2019-05-07T07:51:52.623Z,0.77
2019-05-07T07:54:22.637Z,0.80
2019-05-07T07:57:02.160Z,0.70
2019-05-07T07:59:47.393Z,0.90
2019-05-07T08:02:20.000Z,0.77
2019-05-07T08:04:48.043Z,0.90
2019-05-07T08:07:15.952Z,0.87
2019-05-07T08:09:43.936Z,0.83
2019-05-07T08:12:12.963Z,0.80
2019-05-07T08:14:42.691Z,0.80
2019-05-07T08:17:12.792Z,1.00
2019-05-07T08:19:40.203Z,0.97
2019-05-07T08:22:08.343Z,0.87
2019-05-07T08:24:36.266Z,0.70
2019-05-07T08:27:04.615Z,0.77
2019-05-07T08:29:32.830Z,0.97
2019-05-07T08:32:38.169Z,0.70
2019-05-07T08:35:14.333Z,0.83
2019-05-07T08:37:42.762Z,0.80
2019-05-07T08:40:12.848Z,0.83
2019-05-07T08:42:41.919Z,0.80
2019-05-07T08:45:27.451Z,0.80
2019-05-07T08:47:57.502Z,1.00
2019-05-07T08:50:25.477Z,0.80
2019-05-07T08:52:53.476Z,0.90
2019-05-07T08:55:21.837Z,0.77
2019-05-07T08:57:49.947Z,1.03
2019-05-07T09:00:22.214Z,0.90
2019-05-07T09:02:49.621Z,0.73
2019-05-07T09:05:17.535Z,0.90
2019-05-07T09:07:45.440Z,0.80
2019-05-07T09:10:13.536Z,0.90
2019-05-07T09:12:42.922Z,1.00
2019-05-07T09:15:12.437Z,0.83
2019-05-07T09:17:42.297Z,1.10
2019-05-07T09:20:12.135Z,0.90
2019-05-07T09:22:39.931Z,1.13
2019-05-07T09:25:08.334Z,0.80
2019-05-07T09:27:46.928Z,0.70
2019-05-07T09:30:37.628Z,0.70
2019-05-07T09:33:28.072Z,1.00
2019-05-07T09:35:56.163Z,0.80
2019-05-07T09:38:24.155Z,0.93
2019-05-07T09:40:52.464Z,0.80
2019-05-07T09:43:22.019Z,0.87
2019-05-07T09:45:52.182Z,0.90
2019-05-07T09:48:22.007Z,0.90
2019-05-07T09:50:49.456Z,0.80
2019-05-07T09:53:17.350Z,0.70
2019-05-07T09:55:45.279Z,0.80
2019-05-07T09:58:13.286Z,0.83
2019-05-07T10:00:42.490Z,0.63
2019-05-07T10:03:12.598Z,1.00
2019-05-07T10:05:42.719Z,0.90
2019-05-07T10:08:12.660Z,0.80
2019-05-07T10:10:41.688Z,0.90
2019-05-07T10:13:25.449Z,0.90
2019-05-07T10:15:53.553Z,0.70
2019-05-07T10:18:22.886Z,0.90
2019-05-07T10:20:52.153Z,0.80
2019-05-07T10:23:22.971Z,0.80
2019-05-07T10:25:51.445Z,0.90
2019-05-07T10:28:19.711Z,1.10
2019-05-07T10:30:47.863Z,1.00
2019-05-07T10:33:15.868Z,1.10
2019-05-07T10:35:43.919Z,1.07
2019-05-07T10:38:12.461Z,1.00
2019-05-07T10:40:40.573Z,0.90
2019-05-07T10:43:10.924Z,0.90
2019-05-07T10:45:48.995Z,1.00
2019-05-07T10:48:28.888Z,0.90
2019-05-07T10:50:57.595Z,0.90
2019-05-07T10:53:25.524Z,1.00
2019-05-07T10:55:53.494Z,0.80
2019-05-07T10:58:21.395Z,0.77
2019-05-07T11:00:49.538Z,1.00
2019-05-07T11:03:17.535Z,0.70
2019-05-07T11:05:45.624Z,0.70
2019-05-07T11:08:13.720Z,0.77
2019-05-07T11:10:41.953Z,0.70
2019-05-07T11:13:09.944Z,0.90
2019-05-07T11:15:38.104Z,0.80
2019-05-07T11:18:12.681Z,1.00
2019-05-07T11:20:49.922Z,1.00
2019-05-07T11:23:10.781Z,0.80
2019-05-07T11:25:38.778Z,0.80
2019-05-07T11:28:07.214Z,0.80
2019-05-07T11:30:35.159Z,0.77
2019-05-07T11:33:03.271Z,0.77
2019-05-07T11:35:31.911Z,0.80
2019-05-07T11:38:02.609Z,0.80
2019-05-07T11:40:32.130Z,0.70
2019-05-07T11:43:18.280Z,0.83
2019-05-07T11:46:02.027Z,0.90
2019-05-07T11:48:32.556Z,0.70
2019-05-07T11:51:08.443Z,0.80
2019-05-07T11:53:37.030Z,1.00
2019-05-07T11:56:05.082Z,0.80
2019-05-07T11:58:33.056Z,0.90
2019-05-07T12:01:12.441Z,0.80
2019-05-07T12:03:42.816Z,0.80
2019-05-07T12:06:12.290Z,0.77
2019-05-07T12:08:45.879Z,1.00
2019-05-07T12:11:11.773Z,0.80
2019-05-07T12:13:39.584Z,0.90
2019-05-07T12:16:07.593Z,1.07
2019-05-07T12:18:35.493Z,0.80
2019-05-07T12:21:16.731Z,0.60
2019-05-07T12:23:35.627Z,1.10
2019-05-07T12:26:03.539Z,0.90
2019-05-07T12:28:32.793Z,0.83
2019-05-07T12:31:23.335Z,1.00
2019-05-07T12:34:11.848Z,1.10
2019-05-07T12:36:39.985Z,0.90
2019-05-07T12:39:08.822Z,0.90
2019-05-07T12:41:36.805Z,0.70
2019-05-07T12:44:06.379Z,0.80
2019-05-07T12:46:35.085Z,0.70
2019-05-07T12:49:03.331Z,0.60
2019-05-07T12:51:37.554Z,0.80
2019-05-07T12:54:19.655Z,0.67
2019-05-07T12:56:47.584Z,0.60
2019-05-07T12:59:15.615Z,0.80
2019-05-07T13:01:57.437Z,0.50
2019-05-07T13:04:27.615Z,0.60
2019-05-07T13:07:04.401Z,0.70
2019-05-07T13:09:32.537Z,0.70
2019-05-07T13:12:02.891Z,0.70
2019-05-07T13:14:30.589Z,0.73
2019-05-07T13:16:58.541Z,0.60
2019-05-07T13:19:26.488Z,0.87
2019-05-07T13:21:54.415Z,0.60
2019-05-07T13:24:22.808Z,0.70
2019-05-07T13:26:51.823Z,0.73
2019-05-07T13:29:22.004Z,0.60
2019-05-07T13:31:53.911Z,0.70
2019-05-07T13:34:22.782Z,0.70
2019-05-07T13:36:54.648Z,0.60
2019-05-07T13:39:27.253Z,0.60
2019-05-07T13:42:03.667Z,0.60
2019-05-07T13:44:40.342Z,0.50
2019-05-07T13:47:28.723Z,0.67
2019-05-07T13:49:56.988Z,0.60
2019-05-07T13:52:24.925Z,0.70
2019-05-07T13:54:53.065Z,0.60
2019-05-07T13:57:22.688Z,0.50
2019-05-07T13:59:52.861Z,0.60
2019-05-07T14:02:22.636Z,0.33
2019-05-07T14:04:52.510Z,0.70
2019-05-07T14:07:21.752Z,0.60
2019-05-07T14:09:52.495Z,0.50
2019-05-07T14:12:20.196Z,0.60
2019-05-07T14:14:49.164Z,0.50
2019-05-07T14:17:17.147Z,0.60
2019-05-07T14:19:45.199Z,0.47
2019-05-07T14:22:18.354Z,0.50
2019-05-07T14:24:42.842Z,0.63
2019-05-07T14:27:10.743Z,0.33
2019-05-07T14:29:38.648Z,0.50
2019-05-07T14:32:24.749Z,0.50
2019-05-07T14:35:14.584Z,0.40
2019-05-07T14:37:48.730Z,0.60
2019-05-07T14:40:16.713Z,0.50
2019-05-07T14:42:48.904Z,0.40
2019-05-07T14:45:16.836Z,0.50
2019-05-07T14:47:44.948Z,0.40
2019-05-07T14:50:14.521Z,0.50
2019-05-07T14:52:43.308Z,0.53
2019-05-07T14:55:12.869Z,0.60
2019-05-07T14:57:42.119Z,0.40
2019-05-07T15:00:12.379Z,0.50
2019-05-07T15:02:42.135Z,0.40
2019-05-07T15:05:12.038Z,0.50
2019-05-07T15:07:40.669Z,0.50
2019-05-07T15:10:11.688Z,0.40
2019-05-07T15:12:42.503Z,0.43
2019-05-07T15:15:12.488Z,0.60
2019-05-07T15:17:53.915Z,0.57
2019-05-07T15:20:22.610Z,0.50
2019-05-07T15:23:02.710Z,0.50
2019-05-07T15:25:32.053Z,0.70
2019-05-07T15:28:01.769Z,0.70
2019-05-07T15:30:37.300Z,0.63
2019-05-07T15:33:05.192Z,0.50
2019-05-07T15:35:33.376Z,0.50
2019-05-07T15:38:02.488Z,0.60
2019-05-07T15:40:32.827Z,0.60
2019-05-07T15:43:02.119Z,0.40
2019-05-07T15:45:29.987Z,0.50
2019-05-07T15:47:58.391Z,0.40
2019-05-07T15:50:28.867Z,0.50
2019-05-07T15:53:05.368Z,0.50
2019-05-07T15:55:33.368Z,0.43
2019-05-07T15:58:02.805Z,0.70
2019-05-07T16:00:33.516Z,0.50
2019-05-07T16:03:08.687Z,0.50
2019-05-07T16:05:36.575Z,0.60
2019-05-07T16:08:05.648Z,0.73
2019-05-07T16:10:33.563Z,0.50
2019-05-07T16:13:01.469Z,0.53
2019-05-07T16:15:31.784Z,0.67
2019-05-07T16:18:02.941Z,0.70
2019-05-07T16:20:32.610Z,0.67
2019-05-07T16:23:14.288Z,0.47
2019-05-07T16:25:32.847Z,0.50
2019-05-07T16:28:02.106Z,0.57
2019-05-07T16:30:32.372Z,0.50
2019-05-07T16:33:02.168Z,0.50
2019-05-07T16:35:31.813Z,0.60
2019-05-07T16:37:59.563Z,0.60
2019-05-07T16:40:27.449Z,0.57
2019-05-07T16:42:55.329Z,0.73
2019-05-07T16:45:23.299Z,0.60
2019-05-07T16:47:52.149Z,0.60
2019-05-07T16:50:22.422Z,0.60
2019-05-07T16:52:52.225Z,0.60
2019-05-07T16:55:19.903Z,1.00
2019-05-07T16:58:09.698Z,0.60
2019-05-07T17:00:42.263Z,0.70
2019-05-07T17:03:13.044Z,0.70
2019-05-07T17:05:42.874Z,0.70
2019-05-07T17:08:42.318Z,0.73
2019-05-07T17:11:12.085Z,0.60
2019-05-07T17:13:42.279Z,0.40
2019-05-07T17:16:09.760Z,0.73
2019-05-07T17:18:37.751Z,0.67
2019-05-07T17:21:05.652Z,0.60
2019-05-07T17:23:43.830Z,0.53
2019-05-07T17:26:04.949Z,0.50
2019-05-07T17:28:32.852Z,0.60
2019-05-07T17:31:02.921Z,0.70
2019-05-07T17:33:31.936Z,0.40
2019-05-07T17:36:02.278Z,0.50
2019-05-07T17:38:32.009Z,0.60
2019-05-07T17:41:12.957Z,0.70
2019-05-07T17:43:29.391Z,0.50
2019-05-07T17:45:57.388Z,0.70
2019-05-07T17:48:25.526Z,0.57
2019-05-07T17:51:24.456Z,0.70
2019-05-07T17:53:59.346Z,0.70
2019-05-07T17:56:22.494Z,0.70
2019-05-07T17:58:52.217Z,0.90
2019-05-07T18:01:29.591Z,0.60
2019-05-07T18:03:57.632Z,0.70
2019-05-07T18:06:25.704Z,0.80
2019-05-07T18:08:53.619Z,0.57
2019-05-07T18:11:24.252Z,0.43
2019-05-07T18:13:52.417Z,0.60
2019-05-07T18:16:39.386Z,0.60
2019-05-07T18:19:08.784Z,0.70
2019-05-07T18:21:36.743Z,0.70
2019-05-07T18:24:13.597Z,0.60
2019-05-07T18:26:34.523Z,0.70
2019-05-07T18:29:02.664Z,0.50
2019-05-07T18:31:49.208Z,0.60
2019-05-07T18:34:17.188Z,0.47
2019-05-07T18:36:45.216Z,0.53
2019-05-07T18:39:13.164Z,0.70
2019-05-07T18:41:41.808Z,0.90
2019-05-07T18:44:12.925Z,0.77
2019-05-07T18:46:39.583Z,0.63
2019-05-07T18:49:07.699Z,0.83
2019-05-07T18:51:37.947Z,0.70
2019-05-07T18:54:05.983Z,0.80
2019-05-07T18:56:34.004Z,0.60
2019-05-07T18:59:02.353Z,0.60
2019-05-07T19:01:32.718Z,0.70
2019-05-07T19:04:02.081Z,0.50
2019-05-07T19:06:31.880Z,0.63
2019-05-07T19:09:00.035Z,0.70
2019-05-07T19:11:28.211Z,0.90
2019-05-07T19:13:56.262Z,0.90
2019-05-07T19:16:24.415Z,0.70
2019-05-07T19:18:52.402Z,0.73
2019-05-07T19:21:22.480Z,0.70
2019-05-07T19:23:53.175Z,0.50
2019-05-07T19:26:21.092Z,0.50
2019-05-07T19:28:48.992Z,0.60
2019-05-07T19:31:17.003Z,0.63
2019-05-07T19:33:46.727Z,0.73
2019-05-07T19:36:14.757Z,0.70
2019-05-07T19:38:42.716Z,0.80
2019-05-07T19:41:12.302Z,0.60
2019-05-07T19:43:42.903Z,0.63
2019-05-07T19:46:12.380Z,0.70
2019-05-07T19:48:40.575Z,0.50
2019-05-07T19:51:08.771Z,0.67
2019-05-07T19:53:41.696Z,0.70
2019-05-07T19:56:14.560Z,0.70
2019-05-07T19:58:44.809Z,0.70
2019-05-07T20:01:14.422Z,0.93
2019-05-07T20:03:43.583Z,0.67
2019-05-07T20:06:12.839Z,0.60
2019-05-07T20:08:43.094Z,0.67
2019-05-07T20:11:24.255Z,0.50
2019-05-07T20:13:52.488Z,0.70
2019-05-07T20:16:22.962Z,0.70
2019-05-07T20:18:52.335Z,0.70
2019-05-07T20:21:19.999Z,0.60
2019-05-07T20:23:48.004Z,0.60
2019-05-07T20:26:15.914Z,0.80
2019-05-07T20:28:43.925Z,0.90
2019-05-07T20:31:12.453Z,0.83
2019-05-07T20:33:42.859Z,0.80
2019-05-07T20:36:10.816Z,0.70
2019-05-07T20:38:38.735Z,0.70
2019-05-07T20:41:13.695Z,0.80
2019-05-07T20:43:42.857Z,0.53
2019-05-07T20:46:11.956Z,0.73
2019-05-07T20:48:42.354Z,0.73
2019-05-07T20:51:12.458Z,0.70
2019-05-07T20:53:57.225Z,1.20
2019-05-07T20:56:27.078Z,0.90
2019-05-07T20:58:55.148Z,0.80
2019-05-07T21:01:23.123Z,0.70
2019-05-07T21:03:52.760Z,0.77
2019-05-07T21:06:22.489Z,0.70
2019-05-07T21:08:50.413Z,0.67
2019-05-07T21:11:18.424Z,0.80
2019-05-07T21:13:46.419Z,0.60
2019-05-07T21:16:14.351Z,0.70
2019-05-07T21:18:42.503Z,0.57
2019-05-07T21:21:12.468Z,0.73
2019-05-07T21:23:40.196Z,0.80
2019-05-07T21:26:08.767Z,0.90
2019-05-07T21:28:37.012Z,0.70
2019-05-07T21:31:05.014Z,0.60
2019-05-07T21:33:33.024Z,0.83
2019-05-07T21:36:02.853Z,0.70
2019-05-07T21:38:32.767Z,0.60
2019-05-07T21:41:00.291Z,0.77
2019-05-07T21:43:28.219Z,0.80
2019-05-07T21:45:56.183Z,0.63
2019-05-07T21:48:24.088Z,0.70
2019-05-07T21:50:52.268Z,0.80
2019-05-07T21:53:29.008Z,0.70
2019-05-07T21:56:16.680Z,0.60
2019-05-07T21:59:06.522Z,0.80
2019-05-07T22:01:53.584Z,0.90
2019-05-07T22:04:21.530Z,0.80
2019-05-07T22:06:49.419Z,0.70
2019-05-07T22:09:17.331Z,0.70
2019-05-07T22:11:45.375Z,0.87
2019-05-07T22:14:13.260Z,0.80
2019-05-07T22:16:41.167Z,0.67
2019-05-07T22:19:09.075Z,1.00
2019-05-07T22:21:37.031Z,0.90
2019-05-07T22:24:05.005Z,0.87
2019-05-07T22:26:33.011Z,0.80
2019-05-07T22:29:03.194Z,0.80
2019-05-07T22:31:49.635Z,0.80
2019-05-07T22:34:54.967Z,1.00
2019-05-07T22:37:22.968Z,0.80
2019-05-07T22:39:50.935Z,0.83
2019-05-07T22:42:22.208Z,0.83
2019-05-07T22:44:48.446Z,0.80
2019-05-07T22:47:22.195Z,0.90
2019-05-07T22:49:53.167Z,0.70
2019-05-07T22:52:22.398Z,0.80
2019-05-07T22:54:50.308Z,0.80
2019-05-07T22:57:49.051Z,0.70
2019-05-07T23:00:23.922Z,0.80
2019-05-07T23:02:53.858Z,0.83
2019-05-07T23:05:23.000Z,0.77
2019-05-07T23:07:52.661Z,1.00
2019-05-07T23:10:22.554Z,0.80
2019-05-07T23:12:50.679Z,1.00
2019-05-07T23:15:18.639Z,0.90
2019-05-07T23:17:46.585Z,0.83
2019-05-07T23:20:14.499Z,0.80
2019-05-07T23:22:42.885Z,0.83
2019-05-07T23:25:10.867Z,0.80
2019-05-07T23:27:38.784Z,1.10
2019-05-07T23:30:07.476Z,0.87
2019-05-07T23:32:35.425Z,0.77
2019-05-07T23:35:03.386Z,0.97
2019-05-07T23:37:33.100Z,0.90
2019-05-07T23:40:06.387Z,0.80
2019-05-07T23:42:35.901Z,1.10
2019-05-07T23:45:03.915Z,0.80
2019-05-07T23:47:31.899Z,1.00
2019-05-07T23:50:06.201Z,0.77
2019-05-07T23:52:34.185Z,1.00
2019-05-07T23:55:02.834Z,0.80
2019-05-07T23:57:32.525Z,1.20
